Time;durP1;ratioP1;P1;durP2;ratioP2;P2;SDS_P1;SDS_P2;PMS_P1;PMS_P2;Temp;Humidity;BMP_temperature;BMP_pressure;BME280_temperature;BME280_humidity;BME280_pressure;Samples;Min_cycle;Max_cycle;Signal;HPM_P1;HPM_P2
2021/08/01 00:01:47;;;;;;;8.15;4.75;;;;;;;16.60;70.56;99368.66;4958588;29;20058;-62
2021/08/01 00:04:33;;;;;;;6.03;4.18;;;;;;;16.60;70.35;99363.41;4958623;29;20479;-63
2021/08/01 00:07:17;;;;;;;6.68;4.10;;;;;;;16.59;70.51;99362.56;4944400;29;20050;-61
2021/08/01 00:10:04;;;;;;;6.15;4.00;;;;;;;16.57;70.44;99353.88;4943896;29;20098;-64
2021/08/01 00:13:02;;;;;;;8.93;4.88;;;;;;;16.56;70.63;99351.31;4958413;29;20055;-63
2021/08/01 00:16:10;;;;;;;8.27;5.03;;;;;;;16.55;70.46;99354.81;4943769;29;20098;-63
2021/08/01 00:19:02;;;;;;;8.82;4.55;;;;;;;16.55;70.34;99344.34;4958142;29;20054;-62
2021/08/01 00:21:54;;;;;;;6.68;4.20;;;;;;;16.52;70.36;99334.78;4943735;29;20049;-61
2021/08/01 00:24:50;;;;;;;8.18;4.57;;;;;;;16.53;70.25;99340.91;4943604;29;20565;-61
2021/08/01 00:27:43;;;;;;;7.15;4.38;;;;;;;16.51;70.49;99340.91;4943842;29;20116;-61
2021/08/01 00:30:27;;;;;;;7.95;4.55;;;;;;;16.50;70.22;99334.00;4944015;29;20121;-62
2021/08/01 00:33:25;;;;;;;6.93;4.32;;;;;;;16.49;70.24;99328.78;4958351;29;20466;-62
2021/08/01 00:36:23;;;;;;;7.53;5.03;;;;;;;16.49;70.32;99331.38;4958435;29;20049;-61
2021/08/01 00:39:16;;;;;;;6.43;5.03;;;;;;;16.47;70.61;99328.81;4943734;29;20513;-62
2021/08/01 00:42:07;;;;;;;7.10;4.35;;;;;;;16.47;70.29;99330.56;4957953;29;20466;-62
2021/08/01 00:45:00;;;;;;;8.95;5.28;;;;;;;16.44;70.15;99340.16;4958285;29;20054;-62
2021/08/01 00:47:52;;;;;;;8.45;4.93;;;;;;;16.43;70.30;99333.22;4943767;29;20138;-61
2021/08/01 00:50:37;;;;;;;6.57;4.50;;;;;;;16.44;70.33;99334.09;4958166;29;20113;-62
2021/08/01 00:53:20;;;;;;;;;;;;;;;16.40;70.17;99335.91;4957699;28;20050;-61
2021/08/01 00:56:04;;;;;;;8.10;5.47;;;;;;;16.40;70.20;99332.44;4943222;29;20298;-62
2021/08/01 00:58:54;;;;;;;8.43;4.85;;;;;;;16.40;70.39;99335.91;4957874;29;20053;-62
2021/08/01 01:02:07;;;;;;;9.48;4.90;;;;;;;16.39;70.22;99328.97;4943114;29;20059;-61
2021/08/01 01:05:36;;;;;;;8.05;4.90;;;;;;;16.38;70.32;99324.63;4943094;29;20471;-61
2021/08/01 01:08:45;;;;;;;9.88;5.47;;;;;;;16.38;70.48;99318.50;4957503;29;20050;-62
2021/08/01 01:11:35;;;;;;;9.65;5.13;;;;;;;16.36;70.31;99317.69;4943091;29;20046;-62
2021/08/01 01:14:32;;;;;;;8.68;4.80;;;;;;;16.37;70.30;99322.00;4942691;29;20093;-62
2021/08/01 01:17:28;;;;;;;8.70;5.32;;;;;;;16.37;70.19;99322.91;4957353;29;20095;-61
2021/08/01 01:20:24;;;;;;;9.98;5.18;;;;;;;16.36;70.26;99328.13;4943098;29;20054;-61
2021/08/01 01:23:29;;;;;;;6.90;5.15;;;;;;;16.34;70.24;99329.94;4942945;29;20050;-63
2021/08/01 01:26:59;;;;;;;12.45;5.80;;;;;;;16.33;70.20;99329.06;4957596;29;20053;-63
2021/08/01 01:29:56;;;;;;;10.13;5.40;;;;;;;16.31;70.49;99324.78;4929015;29;20082;-63
2021/08/01 01:33:06;;;;;;;7.60;5.35;;;;;;;16.30;70.31;99326.50;4942875;29;20054;-61
2021/08/01 01:35:59;;;;;;;13.23;6.20;;;;;;;16.29;70.38;99330.00;4942889;29;20114;-61
2021/08/01 01:38:53;;;;;;;6.05;5.30;;;;;;;16.29;70.32;99327.41;4942819;29;20054;-62
2021/08/01 01:41:52;;;;;;;11.35;5.93;;;;;;;16.28;70.24;99323.06;4956795;29;20066;-61
2021/08/01 01:44:45;;;;;;;7.90;5.78;;;;;;;16.27;70.15;99321.34;4942357;29;20101;-62
2021/08/01 01:47:32;;;;;;;8.95;5.35;;;;;;;16.29;70.30;99322.16;4956420;29;20046;-61
2021/08/01 01:50:22;;;;;;;11.73;6.38;;;;;;;16.27;69.94;99326.59;4942078;29;20086;-61
2021/08/01 01:53:15;;;;;;;9.63;5.78;;;;;;;16.27;70.01;99326.59;4956733;29;20077;-62
2021/08/01 01:56:05;;;;;;;8.82;6.00;;;;;;;16.24;70.30;99334.47;4942513;29;20106;-61
2021/08/01 01:58:52;;;;;;;11.07;6.55;;;;;;;16.24;70.22;99339.72;4956864;29;20521;-62
2021/08/01 02:01:44;;;;;;;9.23;5.93;;;;;;;16.25;70.22;99333.59;4956228;29;20109;-62
2021/08/01 02:04:39;;;;;;;9.50;6.47;;;;;;;16.23;70.08;99332.75;4942196;29;20126;-62
2021/08/01 02:07:23;;;;;;;7.93;6.05;;;;;;;16.21;70.06;99337.16;4956511;29;20105;-61
2021/08/01 02:10:26;;;;;;;13.48;6.72;;;;;;;16.21;70.23;99339.75;4941907;29;20092;-62
2021/08/01 02:13:10;;;;;;;13.95;5.88;;;;;;;16.18;70.35;99329.34;4956292;29;20126;-62
2021/08/01 02:15:56;;;;;;;12.48;7.15;;;;;;;16.18;70.32;99330.22;4956534;29;20046;-62
2021/08/01 02:18:54;;;;;;;11.27;6.32;;;;;;;16.17;70.29;99336.34;4941563;29;20049;-62
2021/08/01 02:21:40;;;;;;;13.00;6.75;;;;;;;16.18;70.28;99334.59;4956608;29;20508;-61
2021/08/01 02:24:30;;;;;;;13.30;6.30;;;;;;;16.17;70.25;99336.34;4941431;29;20411;-61
2021/08/01 02:27:26;;;;;;;14.07;6.97;;;;;;;16.17;70.20;99335.47;4956483;29;20082;-61
2021/08/01 02:30:23;;;;;;;9.23;6.18;;;;;;;16.16;70.25;99337.25;4956113;29;20406;-62
2021/08/01 02:33:16;;;;;;;12.60;6.15;;;;;;;16.14;70.18;99339.84;4955651;29;20102;-62
2021/08/01 02:36:04;;;;;;;10.80;5.93;;;;;;;16.13;70.22;99340.75;4941631;29;20106;-62
2021/08/01 02:38:55;;;;;;;10.27;6.63;;;;;;;16.13;70.28;99343.38;4941653;29;20058;-63
2021/08/01 02:41:45;;;;;;;11.50;5.32;;;;;;;16.13;69.88;99342.50;4955704;29;20054;-63
2021/08/01 02:44:36;;;;;;;14.15;6.22;;;;;;;16.12;70.36;99336.41;4941415;29;20058;-62
2021/08/01 02:47:23;;;;;;;13.27;5.93;;;;;;;16.11;70.08;99334.72;4941550;29;20081;-63
2021/08/01 02:50:18;;;;;;;8.90;5.38;;;;;;;16.11;70.12;99334.72;4941134;29;20410;-63
2021/08/01 02:53:12;;;;;;;13.95;5.95;;;;;;;16.09;70.39;99333.88;4941503;29;20057;-63
2021/08/01 02:56:09;;;;;;;8.70;5.03;;;;;;;16.09;70.22;99336.50;4955385;29;20474;-63
2021/08/01 02:59:00;;;;;;;9.02;5.32;;;;;;;16.08;70.13;99340.00;4956023;29;20046;-63
2021/08/01 03:01:48;;;;;;;7.65;4.97;;;;;;;16.08;70.37;99339.09;4941119;29;20062;-63
2021/08/01 03:04:42;;;;;;;10.02;5.32;;;;;;;16.06;70.01;99336.53;4955870;29;20399;-63
2021/08/01 03:07:35;;;;;;;;;;;;;;;16.03;70.03;99333.13;4941681;29;20410;-63
2021/08/01 03:10:21;;;;;;;9.15;4.65;;;;;;;16.01;70.02;99327.91;4940741;29;19994;-63
2021/08/01 03:13:05;;;;;;;10.68;5.13;;;;;;;16.02;70.14;99331.41;4955297;29;20105;-62
2021/08/01 03:15:55;;;;;;;11.60;5.72;;;;;;;16.03;70.14;99340.97;4954789;29;20062;-62
2021/08/01 03:19:00;;;;;;;8.45;5.05;;;;;;;16.02;70.12;99344.47;4956139;29;20098;-61
2021/08/01 03:21:49;;;;;;;9.35;5.15;;;;;;;16.00;70.43;99346.25;4940909;29;20046;-61
2021/08/01 03:24:39;;;;;;;9.60;4.95;;;;;;;15.98;70.03;99344.50;4941049;29;20438;-63
2021/08/01 03:27:31;;;;;;;6.57;4.65;;;;;;;15.97;70.19;99349.75;4941082;29;20054;-63
2021/08/01 03:30:16;;;;;;;7.22;4.63;;;;;;;15.95;70.25;99357.63;4940679;29;20058;-61
2021/08/01 03:33:08;;;;;;;7.85;4.85;;;;;;;15.95;70.07;99354.16;4955384;29;20175;-62
2021/08/01 03:35:52;;;;;;;8.80;5.15;;;;;;;15.96;70.19;99355.91;4940353;29;20058;-62
2021/08/01 03:38:36;;;;;;;7.72;4.68;;;;;;;15.96;70.35;99345.44;4955020;29;20106;-62
2021/08/01 03:41:29;;;;;;;6.80;5.00;;;;;;;15.96;70.24;99348.06;4940373;29;20058;-61
2021/08/01 03:44:13;;;;;;;9.05;5.18;;;;;;;15.96;70.13;99345.44;4940702;29;20046;-62
2021/08/01 03:47:05;;;;;;;11.00;5.57;;;;;;;15.93;70.22;99351.56;4955163;29;20525;-62
2021/08/01 03:49:52;;;;;;;9.75;5.00;;;;;;;15.93;70.21;99358.56;4955156;29;20046;-62
2021/08/01 03:52:42;;;;;;;12.48;5.80;;;;;;;15.92;70.10;99354.22;4954949;29;20074;-62
2021/08/01 03:55:32;;;;;;;8.30;5.10;;;;;;;15.93;70.07;99345.47;4940625;29;20054;-62
2021/08/01 03:58:18;;;;;;;11.52;5.88;;;;;;;15.91;70.29;99352.47;4940405;29;20526;-62
2021/08/01 04:01:06;;;;;;;11.43;6.07;;;;;;;15.90;70.23;99342.91;4939436;29;20058;-61
2021/08/01 04:03:58;;;;;;;11.45;5.90;;;;;;;15.89;70.17;99341.19;4940658;29;20058;-61
2021/08/01 04:06:45;;;;;;;11.88;5.93;;;;;;;15.88;70.17;99344.69;4954732;29;20439;-63
2021/08/01 04:09:32;;;;;;;11.52;5.53;;;;;;;15.87;70.13;99342.97;4940504;29;20106;-63
2021/08/01 04:12:30;;;;;;;10.40;5.90;;;;;;;15.86;70.19;99344.72;4940558;29;20186;-63
2021/08/01 04:15:26;;;;;;;9.43;5.60;;;;;;;15.85;70.06;99345.63;4954740;29;20423;-63
2021/08/01 04:18:19;;;;;;;10.02;6.00;;;;;;;15.86;70.00;99343.84;4940680;29;20398;-63
2021/08/01 04:21:11;;;;;;;10.25;5.43;;;;;;;15.84;70.15;99342.09;4954590;29;20055;-63
2021/08/01 04:24:01;;;;;;;12.88;6.10;;;;;;;15.84;70.08;99341.25;4940622;29;20053;-63
2021/08/01 04:26:54;;;;;;;15.77;6.85;;;;;;;15.83;70.07;99334.28;4940072;28;20564;-62
2021/08/01 04:29:38;;;;;;;13.57;6.15;;;;;;;15.81;70.19;99344.75;4943654;29;20090;-63
2021/08/01 04:32:22;;;;;;;11.70;5.55;;;;;;;15.82;70.10;99345.63;4958317;29;20139;-63
2021/08/01 04:35:17;;;;;;;11.93;6.07;;;;;;;15.83;70.19;99345.59;4957945;29;20046;-61
2021/08/01 04:38:09;;;;;;;15.05;6.85;;;;;;;15.86;70.24;99343.84;4942738;29;20106;-63
2021/08/01 04:40:59;;;;;;;13.43;6.03;;;;;;;15.84;70.34;99341.25;4943585;29;20170;-62
2021/08/01 04:43:46;;;;;;;15.93;6.47;;;;;;;15.86;70.43;99346.47;4943486;29;20070;-63
2021/08/01 04:46:33;;;;;;;11.63;6.35;;;;;;;15.87;70.27;99345.56;4943825;29;20050;-63
2021/08/01 04:49:23;;;;;;;10.35;6.18;;;;;;;15.87;70.27;99342.97;4943462;29;20506;-63
2021/08/01 04:52:19;;;;;;;13.20;6.18;;;;;;;15.87;70.33;99335.13;4943446;29;20518;-63
2021/08/01 04:55:09;;;;;;;15.18;7.65;;;;;;;15.84;70.27;99336.00;4943749;29;20054;-63
2021/08/01 04:57:53;;;;;;;17.10;7.50;;;;;;;15.86;70.53;99341.25;4957410;29;20129;-63
2021/08/01 05:00:46;;;;;;;16.52;8.30;;;;;;;15.84;70.55;99346.47;4957516;29;20561;-63
2021/08/01 05:03:41;;;;;;;16.10;7.50;;;;;;;15.84;70.61;99334.25;4957579;29;20410;-63
2021/08/01 05:06:28;;;;;;;17.00;8.38;;;;;;;15.86;70.65;99341.25;4943208;29;20081;-62
2021/08/01 05:09:21;;;;;;;21.05;8.18;;;;;;;15.86;70.35;99331.66;4957206;29;20077;-63
2021/08/01 05:12:17;;;;;;;20.02;8.15;;;;;;;15.87;70.54;99340.34;4957372;29;20058;-63
2021/08/01 05:15:14;;;;;;;11.35;8.55;;;;;;;15.86;70.63;99331.66;4957230;29;20050;-63
2021/08/01 05:18:07;;;;;;;17.27;8.85;;;;;;;15.86;70.64;99323.81;4942497;29;20050;-62
2021/08/01 05:21:04;;;;;;;18.65;8.00;;;;;;;15.87;70.51;99332.50;4942293;29;20138;-62
2021/08/01 05:23:49;;;;;;;17.83;8.35;;;;;;;15.88;70.58;99327.28;4942813;29;20101;-63
2021/08/01 05:26:44;;;;;;;12.95;7.63;;;;;;;15.89;70.67;99328.13;4942614;29;20053;-63
2021/08/01 05:29:38;;;;;;;14.98;8.48;;;;;;;15.89;70.68;99328.97;4957368;29;20049;-62
2021/08/01 05:32:27;;;;;;;15.25;7.90;;;;;;;15.89;70.75;99333.34;4956942;29;20050;-63
2021/08/01 05:35:18;;;;;;;16.75;8.45;;;;;;;15.88;70.70;99327.28;4942159;29;20118;-62
2021/08/01 05:38:14;;;;;;;17.15;7.90;;;;;;;15.88;70.63;99329.00;4942043;28;20530;-63
2021/08/01 05:41:04;;;;;;;14.65;8.27;;;;;;;15.88;70.79;99337.72;4942404;29;20063;-62
2021/08/01 05:43:51;;;;;;;15.23;8.13;;;;;;;15.89;70.67;99336.81;4957069;29;20045;-63
2021/08/01 05:46:35;;;;;;;12.55;7.95;;;;;;;15.89;70.73;99331.59;4942607;29;20056;-63
2021/08/01 05:49:30;;;;;;;13.85;8.35;;;;;;;15.89;70.64;99326.38;4956832;29;20070;-63
2021/08/01 05:52:23;;;;;;;14.18;8.75;;;;;;;15.90;70.83;99325.47;4942910;29;20066;-62
2021/08/01 05:55:08;;;;;;;13.07;9.02;;;;;;;15.89;70.96;99317.69;4942316;29;20057;-63
2021/08/01 05:57:51;;;;;;;;;;;;;;;15.89;70.75;99321.13;4942729;29;20050;-63
2021/08/01 06:00:38;;;;;;;17.20;8.73;;;;;;;15.88;70.72;99322.06;4956441;29;20379;-63
2021/08/01 06:03:22;;;;;;;22.20;9.27;;;;;;;15.90;70.86;99324.63;4936077;29;20106;-63
2021/08/01 06:06:19;;;;;;;11.77;8.32;;;;;;;15.90;70.83;99325.47;4937417;29;20074;-63
2021/08/01 06:09:03;;;;;;;17.48;9.00;;;;;;;15.89;70.93;99313.28;4937069;29;20419;-63
2021/08/01 06:11:47;;;;;;;13.82;9.50;;;;;;;15.92;70.69;99330.69;4937424;29;20058;-62
2021/08/01 06:14:31;;;;;;;12.75;8.57;;;;;;;15.91;70.92;99326.34;4936946;29;20099;-63
2021/08/01 06:17:21;;;;;;;21.98;8.93;;;;;;;15.92;70.87;99331.53;4937032;29;20419;-63
2021/08/01 06:20:05;;;;;;;14.05;8.60;;;;;;;15.91;70.89;99335.03;4937253;29;20070;-63
2021/08/01 06:22:49;;;;;;;;;;;;;;;15.90;70.83;99330.69;4937472;29;20055;-63
2021/08/01 06:25:38;;;;;;;17.17;9.05;;;;;;;15.92;70.85;99334.16;4936895;29;20005;-63
2021/08/01 06:28:22;;;;;;;17.17;8.05;;;;;;;15.91;70.88;99342.03;4936896;29;20082;-63
2021/08/01 06:31:07;;;;;;;15.20;8.50;;;;;;;15.91;71.04;99344.66;4936094;29;20587;-63
2021/08/01 06:33:54;;;;;;;14.50;8.55;;;;;;;15.91;70.89;99340.25;4935938;29;20066;-62
2021/08/01 06:36:38;;;;;;;14.75;8.82;;;;;;;15.91;71.13;99342.88;4936973;29;20562;-62
2021/08/01 06:39:22;;;;;;;14.25;8.82;;;;;;;15.90;71.41;99348.16;4936943;29;20050;-62
2021/08/01 06:42:06;;;;;;;13.57;7.88;;;;;;;15.90;71.04;99340.31;4936574;29;20132;-63
2021/08/01 06:44:50;;;;;;;12.95;7.32;;;;;;;15.91;71.06;99347.25;4936372;29;20134;-63
2021/08/01 06:47:40;;;;;;;17.75;8.68;;;;;;;15.90;71.04;99349.00;4935644;29;20051;-63
2021/08/01 06:50:24;;;;;;;12.20;7.22;;;;;;;15.90;71.21;99345.53;4934544;29;20050;-63
2021/08/01 06:53:08;;;;;;;13.02;8.10;;;;;;;15.92;71.18;99343.75;4936601;29;20451;-62
2021/08/01 06:55:54;;;;;;;10.43;7.95;;;;;;;15.92;71.11;99346.38;4936403;29;20055;-61
2021/08/01 06:58:38;;;;;;;14.38;7.90;;;;;;;15.91;71.19;99344.66;4936106;29;20094;-61
2021/08/01 07:01:22;;;;;;;13.45;7.72;;;;;;;15.92;71.08;99346.38;4936586;29;20160;-61
2021/08/01 07:04:06;;;;;;;14.82;8.27;;;;;;;15.93;71.24;99350.72;4936732;29;20054;-61
2021/08/01 07:06:53;;;;;;;;;;;;;;;15.92;70.93;99362.06;4936473;29;20106;-61
2021/08/01 07:09:40;;;;;;;16.17;9.40;;;;;;;15.92;70.96;99356.81;4935546;29;19925;-61
2021/08/01 07:12:26;;;;;;;12.40;7.32;;;;;;;15.92;71.08;99351.59;4936638;29;20051;-61
2021/08/01 07:15:15;;;;;;;15.15;7.55;;;;;;;15.91;71.17;99355.94;4935849;29;20102;-62
2021/08/01 07:18:01;;;;;;;16.48;7.07;;;;;;;15.93;71.19;99366.38;4935614;29;20098;-61
2021/08/01 07:20:48;;;;;;;15.55;7.20;;;;;;;15.94;71.18;99368.13;4936226;29;20046;-61
2021/08/01 07:23:35;;;;;;;15.00;7.18;;;;;;;15.94;71.25;99368.13;4935162;29;20047;-61
2021/08/01 07:26:19;;;;;;;16.73;8.88;;;;;;;15.94;71.27;99370.72;4935701;29;20058;-61
2021/08/01 07:29:03;;;;;;;12.82;6.95;;;;;;;15.94;71.44;99365.50;4935850;29;20419;-63
2021/08/01 07:31:47;;;;;;;13.80;7.82;;;;;;;15.96;71.31;99363.72;4935886;29;20051;-62
2021/08/01 07:34:31;;;;;;;14.27;7.50;;;;;;;15.95;71.45;99362.84;4936166;29;20054;-61
2021/08/01 07:37:19;;;;;;;16.10;8.10;;;;;;;15.96;71.47;99368.97;4935897;29;20051;-62
2021/08/01 07:40:04;;;;;;;15.00;8.10;;;;;;;15.97;71.45;99370.66;4936414;29;20074;-61
2021/08/01 07:42:57;;;;;;;18.67;8.15;;;;;;;15.95;71.41;99365.47;4936078;29;20419;-64
2021/08/01 07:45:41;;;;;;;17.77;7.95;;;;;;;15.97;71.58;99373.25;4935456;29;20083;-63
2021/08/01 07:48:32;;;;;;;18.35;7.85;;;;;;;15.97;71.62;99365.44;4935622;29;20192;-61
2021/08/01 07:51:16;;;;;;;14.40;7.75;;;;;;;15.97;71.56;99371.53;4935348;29;20051;-62
2021/08/01 07:54:03;;;;;;;14.80;8.27;;;;;;;15.98;71.50;99372.38;4935958;29;20059;-61
2021/08/01 07:56:55;;;;;;;17.98;9.27;;;;;;;15.98;71.60;99375.88;4935969;29;20050;-61
2021/08/01 07:59:51;;;;;;;13.95;8.45;;;;;;;15.99;71.60;99366.25;4935794;29;20111;-61
2021/08/01 08:02:49;;;;;;;17.27;9.02;;;;;;;16.00;71.69;99364.53;4937108;29;20143;-62
2021/08/01 08:05:52;;;;;;;16.45;9.15;;;;;;;16.02;71.56;99371.44;4938541;29;20062;-61
2021/08/01 08:08:36;;;;;;;19.48;8.00;;;;;;;16.02;71.63;99366.22;4939091;29;20062;-61
2021/08/01 08:11:20;;;;;;;16.23;8.52;;;;;;;16.02;71.40;99363.59;4939887;29;20051;-63
2021/08/01 08:14:17;;;;;;;17.02;7.32;;;;;;;16.04;71.64;99368.81;4939747;29;20078;-62
2021/08/01 08:17:18;;;;;;;16.73;8.35;;;;;;;16.05;71.69;99357.44;4939458;29;20411;-61
2021/08/01 08:20:09;;;;;;;21.23;8.30;;;;;;;16.05;71.81;99363.56;4939224;29;20122;-61
2021/08/01 08:23:06;;;;;;;15.30;8.02;;;;;;;16.05;71.71;99366.16;4939762;29;20059;-61
2021/08/01 08:26:04;;;;;;;17.73;8.25;;;;;;;16.07;71.72;99369.63;4939071;29;20098;-61
2021/08/01 08:28:59;;;;;;;17.10;7.72;;;;;;;16.07;71.85;99364.41;4939324;29;20051;-62
2021/08/01 08:32:00;;;;;;;13.63;7.13;;;;;;;16.09;71.88;99361.75;4938180;29;20537;-63
2021/08/01 08:34:45;;;;;;;16.23;7.70;;;;;;;16.09;71.89;99366.97;4937939;29;20591;-61
2021/08/01 08:37:29;;;;;;;12.98;7.47;;;;;;;16.10;71.80;99361.75;4938670;29;20050;-61
2021/08/01 08:40:14;;;;;;;16.42;7.78;;;;;;;16.09;72.04;99362.63;4938953;29;20099;-62
2021/08/01 08:42:57;;;;;;;17.67;7.30;;;;;;;16.10;71.87;99358.25;4938317;29;20051;-62
2021/08/01 08:45:59;;;;;;;10.95;7.22;;;;;;;16.11;71.99;99359.97;4937808;29;20050;-63
2021/08/01 08:48:58;;;;;;;12.25;6.90;;;;;;;16.13;72.02;99360.81;4937826;29;20042;-63
2021/08/01 08:51:58;;;;;;;12.50;7.07;;;;;;;16.13;72.03;99366.88;4938830;29;20050;-63
2021/08/01 08:54:59;;;;;;;12.23;7.53;;;;;;;16.13;71.93;99364.28;4938569;29;20139;-63
2021/08/01 08:58:02;;;;;;;11.45;6.47;;;;;;;16.14;72.05;99360.78;4937632;29;20527;-64
2021/08/01 09:00:52;;;;;;;13.18;7.15;;;;;;;16.15;72.08;99366.88;4938469;29;20195;-61
2021/08/01 09:03:38;;;;;;;11.20;7.40;;;;;;;16.16;72.18;99366.00;4937139;29;20579;-62
2021/08/01 09:06:23;;;;;;;13.85;6.85;;;;;;;16.17;72.11;99359.88;4937625;29;20047;-62
2021/08/01 09:09:09;;;;;;;11.50;6.82;;;;;;;16.19;72.19;99367.69;4938148;29;20046;-61
2021/08/01 09:12:07;;;;;;;12.73;7.07;;;;;;;16.18;72.26;99372.06;4937415;29;20106;-62
2021/08/01 09:15:18;;;;;;;9.85;6.75;;;;;;;16.20;72.22;99375.47;4937279;29;20427;-62
2021/08/01 09:18:18;;;;;;;14.82;7.35;;;;;;;16.20;72.17;99382.47;4938563;29;20138;-62
2021/08/01 09:21:42;;;;;;;10.45;7.10;;;;;;;16.20;72.18;99391.16;4937557;29;20430;-61
2021/08/01 09:24:41;;;;;;;11.65;6.20;;;;;;;16.20;72.20;99387.69;4933412;29;20111;-61
2021/08/01 09:27:33;;;;;;;12.27;6.93;;;;;;;16.20;72.18;99393.78;4937316;29;20058;-63
2021/08/01 09:30:17;;;;;;;10.88;7.13;;;;;;;16.21;72.37;99399.88;4936920;29;20046;-63
2021/08/01 09:33:01;;;;;;;11.00;7.00;;;;;;;16.23;72.36;99395.50;4937856;29;20066;-62
2021/08/01 09:35:45;;;;;;;10.02;6.60;;;;;;;16.22;72.27;99389.38;4938075;29;20043;-63
2021/08/01 09:38:53;;;;;;;13.50;6.60;;;;;;;16.22;72.22;99392.00;4937731;29;20118;-62
2021/08/01 09:41:50;;;;;;;10.50;6.25;;;;;;;16.23;72.12;99387.66;4937955;29;20503;-63
2021/08/01 09:44:49;;;;;;;17.55;7.93;;;;;;;16.23;72.21;99392.88;4937255;29;20075;-63
2021/08/01 09:47:47;;;;;;;15.00;6.97;;;;;;;16.24;72.23;99400.69;4937585;29;20415;-63
2021/08/01 09:51:07;;;;;;;15.10;8.13;;;;;;;16.23;72.25;99385.03;4936722;29;20051;-62
2021/08/01 09:53:57;;;;;;;12.88;6.70;;;;;;;16.22;72.33;99384.16;4936693;29;20054;-63
2021/08/01 09:56:56;;;;;;;11.30;7.38;;;;;;;16.22;72.42;99384.16;4936167;29;20423;-63
2021/08/01 10:00:05;;;;;;;12.93;6.57;;;;;;;16.23;72.26;99391.13;4936699;29;20528;-63
2021/08/01 10:03:03;;;;;;;13.40;7.53;;;;;;;16.23;72.32;99395.50;4936221;29;20119;-63
2021/08/01 10:06:17;;;;;;;12.70;7.20;;;;;;;16.25;72.21;99396.34;4936611;29;20122;-63
2021/08/01 10:09:26;;;;;;;13.27;6.43;;;;;;;16.27;72.27;99397.19;4935899;29;20127;-63
2021/08/01 10:12:19;;;;;;;12.50;7.13;;;;;;;16.27;72.25;99387.56;4937395;29;20054;-63
2021/08/01 10:15:03;;;;;;;12.73;6.75;;;;;;;16.31;72.38;99395.38;4936194;29;20094;-63
2021/08/01 10:18:01;;;;;;;12.38;6.70;;;;;;;16.33;72.22;99391.81;4937247;29;20127;-63
2021/08/01 10:20:59;;;;;;;9.38;6.10;;;;;;;16.34;72.32;99393.53;4936248;29;20099;-62
2021/08/01 10:23:54;;;;;;;9.88;6.95;;;;;;;16.35;72.21;99397.03;4935951;29;20054;-63
2021/08/01 10:26:46;;;;;;;15.48;6.55;;;;;;;16.36;72.38;99391.78;4935149;29;20054;-63
2021/08/01 10:29:58;;;;;;;10.55;6.13;;;;;;;16.37;72.37;99400.47;4936725;29;20106;-63
2021/08/01 10:32:58;;;;;;;8.10;7.22;;;;;;;16.37;72.24;99390.00;4935753;29;20091;-63
2021/08/01 10:35:49;;;;;;;12.45;6.13;;;;;;;16.37;72.32;99390.00;4936264;29;20396;-62
2021/08/01 10:38:37;;;;;;;7.72;5.80;;;;;;;16.38;72.43;99390.00;4936272;29;20050;-62
2021/08/01 10:41:38;;;;;;;9.27;5.85;;;;;;;16.38;72.45;99383.88;4936933;29;20534;-63
2021/08/01 10:44:36;;;;;;;9.52;5.55;;;;;;;16.37;72.22;99380.44;4936909;29;20059;-63
2021/08/01 10:47:32;;;;;;;10.32;5.65;;;;;;;16.38;72.35;99381.28;4936280;29;20460;-63
2021/08/01 10:50:31;;;;;;;11.02;5.90;;;;;;;16.38;72.24;99384.75;4935709;29;20115;-62
2021/08/01 10:53:32;;;;;;;8.88;5.93;;;;;;;16.38;72.26;99391.72;4935501;29;20054;-61
2021/08/01 10:56:32;;;;;;;10.05;5.80;;;;;;;16.40;72.47;99390.84;4936175;29;20434;-61
2021/08/01 10:59:43;;;;;;;7.65;6.05;;;;;;;16.39;72.58;99385.63;4935814;29;20127;-61
2021/08/01 11:02:28;;;;;;;11.63;6.85;;;;;;;16.39;72.76;99377.78;4942787;29;20062;-61
2021/08/01 11:05:38;;;;;;;11.27;6.43;;;;;;;16.39;72.57;99385.63;4941035;29;20145;-61
2021/08/01 11:08:50;;;;;;;11.48;6.78;;;;;;;16.40;72.62;99376.88;4941487;29;20514;-61
2021/08/01 11:12:06;;;;;;;10.80;5.97;;;;;;;16.41;72.77;99366.41;4941055;29;20043;-62
2021/08/01 11:15:01;;;;;;;;;;;;;;;16.43;72.41;99367.22;4941419;29;20502;-63
2021/08/01 11:17:54;;;;;;;13.35;6.15;;;;;;;16.42;72.61;99362.91;4941180;29;19920;-63
2021/08/01 11:20:48;;;;;;;12.57;6.05;;;;;;;16.44;72.56;99366.31;4941241;29;20050;-62
2021/08/01 11:23:47;;;;;;;11.00;6.15;;;;;;;16.47;72.58;99364.53;4940759;29;20078;-61
2021/08/01 11:26:32;;;;;;;8.98;5.78;;;;;;;16.49;72.52;99350.56;4940631;29;20054;-62
2021/08/01 11:29:16;;;;;;;10.82;5.90;;;;;;;16.50;72.47;99360.16;4955121;29;20142;-62
2021/08/01 11:32:08;;;;;;;13.10;6.95;;;;;;;16.52;72.57;99353.09;4955336;29;20062;-61
2021/08/01 11:35:15;;;;;;;12.68;6.68;;;;;;;16.55;72.61;99354.81;4941011;29;20514;-63
2021/08/01 11:38:21;;;;;;;9.88;6.47;;;;;;;16.59;72.57;99353.84;4943724;29;20406;-61
2021/08/01 11:41:33;;;;;;;9.20;6.68;;;;;;;16.61;72.57;99353.81;4958734;29;20078;-61
2021/08/01 11:44:28;;;;;;;12.77;6.78;;;;;;;16.60;72.43;99363.41;4943088;29;20054;-61
2021/08/01 11:47:26;;;;;;;9.52;6.53;;;;;;;16.61;72.36;99359.91;4958945;29;20577;-61
2021/08/01 11:50:17;;;;;;;11.95;6.60;;;;;;;16.61;72.61;99366.91;4944318;29;20112;-62
2021/08/01 11:53:02;;;;;;;10.13;6.45;;;;;;;16.61;72.46;99365.13;4944731;29;20051;-61
2021/08/01 11:55:50;;;;;;;7.57;5.85;;;;;;;16.62;72.58;99371.25;4959015;29;20101;-62
2021/08/01 11:58:46;;;;;;;10.23;6.65;;;;;;;16.59;72.50;99366.91;4944343;29;20105;-63
2021/08/01 12:01:41;;;;;;;9.43;6.18;;;;;;;16.59;72.54;99362.56;4944199;29;20063;-61
2021/08/01 12:04:31;;;;;;;10.63;6.50;;;;;;;16.58;72.68;99360.84;4944849;29;20058;-61
2021/08/01 12:07:38;;;;;;;11.18;6.97;;;;;;;16.59;72.54;99361.69;4944257;29;20073;-61
2021/08/01 12:10:33;;;;;;;9.02;6.93;;;;;;;16.58;72.60;99360.00;4944088;29;20070;-61
2021/08/01 12:13:29;;;;;;;12.20;6.28;;;;;;;16.56;72.74;99378.31;4944258;29;20046;-62
2021/08/01 12:16:18;;;;;;;8.82;6.18;;;;;;;16.57;72.49;99373.97;4958836;29;20090;-62
2021/08/01 12:19:16;;;;;;;7.97;6.38;;;;;;;16.57;72.81;99373.97;4958466;29;20058;-62
2021/08/01 12:22:11;;;;;;;13.23;6.68;;;;;;;16.57;72.64;99368.72;4943983;29;20514;-61
2021/08/01 12:25:06;;;;;;;14.48;7.57;;;;;;;16.58;72.68;99371.31;4958056;29;20054;-63
2021/08/01 12:28:02;;;;;;;10.65;7.65;;;;;;;16.59;72.73;99372.16;4958373;29;20589;-63
2021/08/01 12:30:54;;;;;;;12.27;7.68;;;;;;;16.61;72.74;99372.13;4958012;29;20106;-63
2021/08/01 12:33:49;;;;;;;11.18;7.47;;;;;;;16.62;72.92;99371.25;4958305;29;20541;-63
2021/08/01 12:36:44;;;;;;;8.93;6.60;;;;;;;16.65;72.79;99369.44;4958239;29;20069;-63
2021/08/01 12:39:46;;;;;;;11.73;7.82;;;;;;;16.66;72.95;99376.38;4943408;29;20427;-63
2021/08/01 12:42:56;;;;;;;8.15;6.07;;;;;;;16.66;72.67;99379.00;4958425;29;20110;-63
2021/08/01 12:45:56;;;;;;;6.45;5.13;;;;;;;16.68;72.73;99379.84;4943542;29;20046;-62
2021/08/01 12:48:47;;;;;;;6.47;5.60;;;;;;;16.68;72.79;99379.84;4956796;28;20054;-62
2021/08/01 12:51:32;;;;;;;10.32;6.05;;;;;;;16.69;72.78;99378.06;4943321;29;20050;-62
2021/08/01 12:54:16;;;;;;;;;;;;;;;16.69;72.98;99386.78;4943557;29;20415;-63
2021/08/01 12:57:14;;;;;;;7.78;4.93;;;;;;;16.69;72.90;99397.25;4943857;29;20318;-63
2021/08/01 13:00:35;;;;;;;6.03;4.22;;;;;;;16.69;73.12;99410.34;4957710;29;20098;-64
2021/08/01 13:03:37;;;;;;;6.25;3.83;;;;;;;16.70;72.86;99400.72;4937373;29;20139;-64
2021/08/01 13:06:33;;;;;;;4.80;3.90;;;;;;;16.71;72.75;99413.78;4938226;29;20566;-61
2021/08/01 13:09:29;;;;;;;6.15;3.78;;;;;;;16.72;72.98;99401.56;4937436;29;20135;-64
2021/08/01 13:12:19;;;;;;;5.40;3.30;;;;;;;16.73;72.91;99411.13;4937418;29;20416;-63
2021/08/01 13:15:34;;;;;;;4.18;3.40;;;;;;;16.72;72.87;99419.88;4937407;29;20046;-63
2021/08/01 13:18:45;;;;;;;5.25;2.75;;;;;;;16.73;72.80;99421.59;4937539;29;20057;-63
2021/08/01 13:21:40;;;;;;;3.50;2.60;;;;;;;16.74;72.81;99431.19;4937072;29;20050;-63
2021/08/01 13:24:36;;;;;;;5.30;2.42;;;;;;;16.74;72.86;99441.66;4938222;29;20471;-62
2021/08/01 13:27:49;;;;;;;3.08;2.50;;;;;;;16.73;72.66;99439.91;4937140;29;20143;-62
2021/08/01 13:31:09;;;;;;;3.15;2.22;;;;;;;16.71;72.85;99429.50;4937014;29;20051;-62